createdAt,value
2022-09-22T00:01:09.232Z,9.71
2022-09-22T00:03:39.569Z,9.52
2022-09-22T00:06:15.229Z,9.65
2022-09-22T00:08:44.395Z,9.43
2022-09-22T00:11:17.191Z,9.24
2022-09-22T00:13:46.696Z,8.90
2022-09-22T00:16:14.408Z,9.53
2022-09-22T00:18:41.873Z,10.16
2022-09-22T00:21:12.615Z,9.98
2022-09-22T00:23:40.266Z,10.11
2022-09-22T00:26:10.634Z,10.42
2022-09-22T00:28:38.833Z,10.19
2022-09-22T00:31:07.413Z,9.99
2022-09-22T00:33:34.923Z,10.21
2022-09-22T00:36:03.044Z,10.55
2022-09-22T00:38:30.761Z,10.46
2022-09-22T00:41:00.887Z,10.67
2022-09-22T00:43:30.353Z,10.46
2022-09-22T00:46:09.566Z,10.46
2022-09-22T00:48:39.554Z,10.52
2022-09-22T00:51:07.929Z,10.54
2022-09-22T00:53:35.327Z,10.53
2022-09-22T00:56:07.486Z,11.16
2022-09-22T00:58:38.178Z,11.03
2022-09-22T01:01:09.418Z,11.22
2022-09-22T01:03:39.155Z,11.43
2022-09-22T01:06:07.796Z,11.07
2022-09-22T01:08:35.274Z,10.75
2022-09-22T01:11:02.632Z,10.26
2022-09-22T01:14:00.545Z,10.90
2022-09-22T01:16:45.920Z,11.06
2022-09-22T01:19:35.260Z,11.27
2022-09-22T01:22:32.555Z,10.63
2022-09-22T01:25:05.960Z,10.60
2022-09-22T01:27:58.046Z,11.09
2022-09-22T01:30:29.757Z,11.31
2022-09-22T01:33:09.159Z,11.38
2022-09-22T01:35:45.812Z,11.34
2022-09-22T01:38:37.715Z,11.31
2022-09-22T01:41:15.146Z,11.59
2022-09-22T01:43:50.954Z,11.57
2022-09-22T01:46:22.810Z,10.85
2022-09-22T01:48:50.217Z,11.13
2022-09-22T01:51:53.933Z,11.43
2022-09-22T01:54:25.059Z,10.75
2022-09-22T01:56:56.832Z,10.20
2022-09-22T01:59:26.156Z,9.36
2022-09-22T02:02:05.842Z,10.06
2022-09-22T02:05:00.597Z,10.29
2022-09-22T02:07:33.917Z,9.81
2022-09-22T02:10:04.470Z,10.02
2022-09-22T02:12:31.797Z,9.71
2022-09-22T02:14:59.148Z,9.90
2022-09-22T02:17:30.590Z,10.02
2022-09-22T02:20:00.374Z,10.14
2022-09-22T02:22:27.951Z,9.92
2022-09-22T02:24:55.340Z,10.07
2022-09-22T02:27:27.566Z,10.34
2022-09-22T02:30:08.187Z,10.11
2022-09-22T02:32:36.198Z,10.42
2022-09-22T02:35:03.950Z,10.51
2022-09-22T02:37:50.906Z,10.19
2022-09-22T02:40:28.642Z,10.12
2022-09-22T02:43:01.993Z,10.18
2022-09-22T02:45:32.317Z,10.07
2022-09-22T02:48:03.002Z,10.62
2022-09-22T02:50:30.615Z,10.74
2022-09-22T02:53:01.861Z,10.30
2022-09-22T02:55:29.236Z,10.36
2022-09-22T02:57:56.872Z,10.56
2022-09-22T03:00:24.197Z,10.78
2022-09-22T03:02:51.556Z,10.41
2022-09-22T03:05:19.162Z,10.81
2022-09-22T03:07:46.488Z,10.98
2022-09-22T03:10:13.995Z,11.10
2022-09-22T03:13:02.361Z,10.51
2022-09-22T03:15:30.087Z,10.97
2022-09-22T03:17:57.716Z,10.84
2022-09-22T03:20:25.272Z,10.75
2022-09-22T03:22:52.668Z,11.13
2022-09-22T03:25:20.274Z,10.53
2022-09-22T03:27:48.192Z,9.65
2022-09-22T03:30:15.565Z,9.97
2022-09-22T03:32:43.144Z,8.96
2022-09-22T03:35:10.512Z,9.11
2022-09-22T03:37:37.869Z,9.56
2022-09-22T03:40:05.899Z,10.16
2022-09-22T03:42:34.936Z,9.70
2022-09-22T03:45:04.247Z,9.86
2022-09-22T03:47:31.975Z,10.03
2022-09-22T03:49:59.298Z,9.74
2022-09-22T03:52:27.355Z,10.17
2022-09-22T03:54:54.990Z,9.75
2022-09-22T03:57:22.328Z,9.44
2022-09-22T03:59:49.874Z,8.25
2022-09-22T04:02:17.791Z,8.33
2022-09-22T04:04:45.632Z,9.03
2022-09-22T04:07:12.957Z,9.26
2022-09-22T04:09:41.961Z,9.90
2022-09-22T04:12:09.849Z,9.30
2022-09-22T04:14:37.186Z,10.07
2022-09-22T04:17:05.242Z,10.47
2022-09-22T04:19:35.668Z,10.56
2022-09-22T04:22:03.525Z,10.83
2022-09-22T04:24:30.898Z,11.03
2022-09-22T04:29:45.829Z,10.93
2022-09-22T04:32:14.524Z,9.70
2022-09-22T04:34:42.934Z,10.12
2022-09-22T04:37:10.900Z,10.58
2022-09-22T04:39:38.614Z,10.58
2022-09-22T04:42:06.155Z,10.37
2022-09-22T04:44:35.433Z,9.19
2022-09-22T04:47:03.959Z,9.07
2022-09-22T04:49:31.351Z,9.56
2022-09-22T04:51:59.052Z,10.10
2022-09-22T04:54:26.643Z,9.68
2022-09-22T04:56:53.985Z,9.63
2022-09-22T04:59:21.345Z,10.00
2022-09-22T05:01:48.981Z,10.35
2022-09-22T05:04:16.744Z,10.72
2022-09-22T05:06:44.059Z,10.93
2022-09-22T05:09:11.679Z,10.54
2022-09-22T05:11:39.579Z,10.11
2022-09-22T05:14:06.913Z,10.70
2022-09-22T05:16:35.281Z,10.77
2022-09-22T05:19:02.731Z,10.89
2022-09-22T05:21:30.052Z,11.06
2022-09-22T05:23:57.706Z,10.42
2022-09-22T05:26:25.860Z,10.06
2022-09-22T05:28:53.364Z,10.62
2022-09-22T05:31:21.022Z,10.38
2022-09-22T05:33:48.373Z,10.46
2022-09-22T05:36:15.885Z,10.92
2022-09-22T05:38:43.484Z,10.18
2022-09-22T05:41:10.910Z,10.88
2022-09-22T05:43:38.306Z,10.99
2022-09-22T05:46:05.998Z,11.05
2022-09-22T05:48:33.438Z,10.62
2022-09-22T05:51:01.277Z,10.96
2022-09-22T05:53:28.933Z,11.23
2022-09-22T05:55:57.078Z,11.26
2022-09-22T05:58:24.448Z,11.17
2022-09-22T06:00:52.070Z,10.58
2022-09-22T06:03:19.709Z,10.77
2022-09-22T06:05:47.053Z,11.11
2022-09-22T06:08:14.456Z,11.42
2022-09-22T06:10:42.256Z,11.67
2022-09-22T06:13:10.142Z,11.21
2022-09-22T06:15:38.379Z,12.02
2022-09-22T06:18:07.579Z,11.28
2022-09-22T06:20:41.043Z,11.09
2022-09-22T06:23:09.031Z,11.50
2022-09-22T06:25:36.386Z,11.11
2022-09-22T06:28:07.282Z,11.43
2022-09-22T06:30:35.694Z,11.62
2022-09-22T06:33:03.458Z,11.45
2022-09-22T06:35:35.390Z,12.29
2022-09-22T06:38:03.620Z,12.00
2022-09-22T06:40:32.336Z,12.41
2022-09-22T06:43:00.286Z,12.14
2022-09-22T06:45:27.997Z,11.66
2022-09-22T06:47:58.954Z,11.94
2022-09-22T06:50:31.088Z,12.31
2022-09-22T06:53:02.581Z,12.08
2022-09-22T06:55:30.198Z,12.32
2022-09-22T06:57:59.007Z,12.46
2022-09-22T07:00:31.296Z,12.31
2022-09-22T07:03:25.502Z,12.19
2022-09-22T07:06:02.588Z,12.39
2022-09-22T07:08:30.868Z,11.73
2022-09-22T07:11:02.110Z,12.25
2022-09-22T07:13:30.173Z,12.16
2022-09-22T07:16:01.479Z,12.50
2022-09-22T07:18:29.996Z,13.00
2022-09-22T07:21:05.744Z,13.00
2022-09-22T07:23:35.645Z,12.53
2022-09-22T07:26:07.338Z,12.40
2022-09-22T07:28:35.251Z,12.54
2022-09-22T07:31:11.318Z,13.28
2022-09-22T07:33:39.689Z,12.97
2022-09-22T07:36:15.381Z,13.02
2022-09-22T07:38:43.259Z,13.14
2022-09-22T07:41:12.469Z,13.27
2022-09-22T07:43:40.301Z,13.32
2022-09-22T07:46:07.884Z,13.30
2022-09-22T07:48:36.355Z,13.63
2022-09-22T07:51:16.359Z,13.70
2022-09-22T07:53:45.773Z,13.81
2022-09-22T07:56:15.170Z,13.65
2022-09-22T07:58:47.640Z,13.14
2022-09-22T08:01:15.286Z,13.21
2022-09-22T08:03:42.983Z,13.07
2022-09-22T08:06:11.230Z,13.68
2022-09-22T08:08:42.251Z,13.60
2022-09-22T08:11:13.279Z,13.74
2022-09-22T08:13:43.730Z,13.66
2022-09-22T08:16:11.819Z,13.87
2022-09-22T08:18:41.995Z,13.76
2022-09-22T08:21:09.368Z,13.58
2022-09-22T08:23:37.577Z,13.17
2022-09-22T08:26:06.329Z,13.82
2022-09-22T08:28:33.700Z,13.55
2022-09-22T08:31:01.573Z,13.91
2022-09-22T08:33:32.265Z,14.17
2022-09-22T08:36:03.742Z,13.73
2022-09-22T08:38:31.449Z,13.94
2022-09-22T08:41:04.705Z,14.05
2022-09-22T08:43:32.394Z,14.07
2022-09-22T08:46:01.321Z,13.65
2022-09-22T08:48:47.398Z,14.04
2022-09-22T08:51:41.273Z,14.38
2022-09-22T08:54:08.723Z,14.93
2022-09-22T08:56:40.990Z,14.62
2022-09-22T08:59:11.347Z,14.74
2022-09-22T09:01:42.730Z,14.96
2022-09-22T09:04:28.747Z,15.13
2022-09-22T09:06:58.180Z,15.07
2022-09-22T09:10:00.469Z,15.25
2022-09-22T09:12:34.911Z,15.46
2022-09-22T09:15:29.392Z,15.42
2022-09-22T09:17:59.393Z,15.73
2022-09-22T09:20:39.225Z,15.59
2022-09-22T09:23:14.377Z,15.48
2022-09-22T09:25:42.254Z,15.68
2022-09-22T09:28:18.940Z,15.73
2022-09-22T09:30:51.262Z,15.94
2022-09-22T09:33:31.468Z,16.49
2022-09-22T09:35:58.823Z,16.38
2022-09-22T09:38:35.494Z,16.33
2022-09-22T09:41:15.312Z,16.83
2022-09-22T09:43:44.910Z,17.88
2022-09-22T09:46:30.525Z,17.82
2022-09-22T09:49:12.457Z,17.89
2022-09-22T09:51:40.519Z,18.35
2022-09-22T09:54:13.097Z,17.94
2022-09-22T09:57:12.790Z,18.08
2022-09-22T10:00:06.247Z,18.08
2022-09-22T10:02:50.933Z,18.91
2022-09-22T10:05:18.390Z,19.32
2022-09-22T10:07:57.466Z,18.83
2022-09-22T10:10:35.709Z,19.00
2022-09-22T10:13:05.933Z,19.31
2022-09-22T10:15:35.122Z,19.36
2022-09-22T10:18:02.815Z,19.87
2022-09-22T10:20:31.651Z,17.73
2022-09-22T10:23:20.275Z,16.47
2022-09-22T10:25:48.335Z,16.73
2022-09-22T10:28:17.565Z,17.30
2022-09-22T10:30:46.433Z,17.28
2022-09-22T10:33:14.885Z,17.92
2022-09-22T10:35:46.225Z,18.05
2022-09-22T10:38:21.151Z,17.98
2022-09-22T10:41:19.436Z,18.20
2022-09-22T10:44:00.329Z,18.68
2022-09-22T10:46:59.956Z,18.38
2022-09-22T10:49:31.220Z,18.23
2022-09-22T10:52:21.921Z,18.65
2022-09-22T10:55:16.866Z,17.56
2022-09-22T10:58:00.055Z,18.00
2022-09-22T11:00:27.498Z,17.67
2022-09-22T11:03:10.392Z,17.44
2022-09-22T11:06:05.792Z,17.93
2022-09-22T11:09:24.979Z,18.56
2022-09-22T11:12:17.016Z,18.45
2022-09-22T11:14:56.954Z,18.00
2022-09-22T11:18:07.073Z,17.98
2022-09-22T11:20:36.772Z,17.50
2022-09-22T11:23:26.029Z,17.55
2022-09-22T11:26:33.907Z,17.86
2022-09-22T11:29:37.486Z,17.41
2022-09-22T11:32:29.364Z,18.05
2022-09-22T11:35:21.463Z,18.37
2022-09-22T11:38:13.784Z,18.69
2022-09-22T11:41:18.628Z,18.30
2022-09-22T11:44:11.660Z,18.81
2022-09-22T11:47:01.064Z,19.07
2022-09-22T11:49:43.604Z,19.30
2022-09-22T11:52:32.362Z,19.01
2022-09-22T11:55:05.957Z,18.90
2022-09-22T11:57:36.143Z,18.83
2022-09-22T12:00:19.025Z,18.84
2022-09-22T12:03:02.122Z,18.60
2022-09-22T12:05:53.557Z,19.02
2022-09-22T12:08:23.104Z,19.23
2022-09-22T12:10:51.396Z,19.17
2022-09-22T12:13:20.433Z,19.08
2022-09-22T12:16:08.733Z,18.05
2022-09-22T12:19:02.869Z,17.88
2022-09-22T12:21:48.807Z,18.48
2022-09-22T12:24:16.179Z,18.32
2022-09-22T12:26:45.343Z,18.83
2022-09-22T12:29:16.282Z,18.32
2022-09-22T12:31:45.447Z,18.52
2022-09-22T12:34:27.077Z,18.58
2022-09-22T12:36:57.120Z,18.54
2022-09-22T12:39:25.931Z,18.81
2022-09-22T12:42:01.624Z,18.91
2022-09-22T12:44:36.901Z,19.07
2022-09-22T12:47:08.280Z,19.12
2022-09-22T12:49:37.452Z,19.39
2022-09-22T12:52:04.798Z,18.97
2022-09-22T12:54:36.788Z,18.98
2022-09-22T12:59:39.046Z,19.12
2022-09-22T13:02:15.995Z,19.14
2022-09-22T13:04:49.675Z,19.58
2022-09-22T13:07:36.057Z,19.75
2022-09-22T13:10:21.491Z,19.58
2022-09-22T13:13:19.921Z,19.27
2022-09-22T13:15:47.221Z,19.43
2022-09-22T13:18:37.005Z,19.55
2022-09-22T13:21:13.453Z,19.50
2022-09-22T13:23:58.799Z,19.12
2022-09-22T13:26:39.133Z,19.12
2022-09-22T13:29:15.393Z,18.71
2022-09-22T13:31:46.151Z,18.99
2022-09-22T13:34:35.301Z,18.73
2022-09-22T13:37:12.395Z,18.81
2022-09-22T13:39:46.889Z,18.82
2022-09-22T13:42:23.406Z,18.81
2022-09-22T13:45:04.322Z,18.90
2022-09-22T13:47:31.944Z,18.43
2022-09-22T13:50:12.857Z,18.28
2022-09-22T13:52:40.244Z,18.04
2022-09-22T13:55:28.222Z,18.17
2022-09-22T13:57:56.261Z,18.30
2022-09-22T14:00:26.525Z,18.19
2022-09-22T14:02:57.749Z,18.37
2022-09-22T14:05:27.635Z,18.51
2022-09-22T14:08:11.173Z,18.23
2022-09-22T14:10:40.558Z,18.36
2022-09-22T14:13:39.677Z,18.32
2022-09-22T14:16:29.674Z,18.21
2022-09-22T14:19:18.040Z,18.02
2022-09-22T14:21:55.745Z,18.47
2022-09-22T14:24:23.405Z,18.39
2022-09-22T14:27:03.015Z,18.20
2022-09-22T14:29:35.789Z,18.44
2022-09-22T14:32:39.789Z,18.15
2022-09-22T14:35:25.969Z,18.22
2022-09-22T14:37:53.403Z,18.31
2022-09-22T14:40:22.644Z,18.27
2022-09-22T14:43:08.882Z,17.97
2022-09-22T14:45:36.959Z,17.92
2022-09-22T14:48:16.821Z,17.97
2022-09-22T14:51:05.398Z,17.96
2022-09-22T14:53:37.722Z,17.83
2022-09-22T14:56:13.229Z,17.71
2022-09-22T14:58:41.434Z,17.89
2022-09-22T15:01:40.484Z,17.95
2022-09-22T15:04:17.630Z,18.02
2022-09-22T15:06:46.297Z,18.13
2022-09-22T15:09:35.857Z,17.82
2022-09-22T15:12:03.726Z,18.01
2022-09-22T15:14:44.287Z,18.08
2022-09-22T15:17:59.507Z,18.20
2022-09-22T15:20:38.684Z,18.43
2022-09-22T15:23:15.860Z,16.64
2022-09-22T15:25:43.512Z,15.90
2022-09-22T15:28:16.664Z,15.27
2022-09-22T15:30:44.797Z,14.61
2022-09-22T15:33:15.539Z,14.97
2022-09-22T15:35:44.740Z,14.96
2022-09-22T15:38:17.784Z,14.51
2022-09-22T15:40:46.712Z,14.63
2022-09-22T15:43:20.654Z,15.21
2022-09-22T15:46:09.198Z,15.46
2022-09-22T15:48:38.305Z,15.88
2022-09-22T15:51:07.715Z,15.66
2022-09-22T15:53:35.188Z,15.52
2022-09-22T15:56:05.164Z,15.98
2022-09-22T15:58:34.942Z,16.07
2022-09-22T16:01:02.904Z,15.80
2022-09-22T16:03:31.404Z,15.64
2022-09-22T16:05:59.964Z,15.49
2022-09-22T16:08:29.624Z,15.88
2022-09-22T16:10:58.412Z,15.76
2022-09-22T16:13:26.899Z,15.89
2022-09-22T16:15:54.924Z,15.93
2022-09-22T16:18:22.585Z,16.03
2022-09-22T16:20:51.756Z,15.70
2022-09-22T16:23:19.665Z,15.48
2022-09-22T16:25:52.342Z,15.35
2022-09-22T16:28:20.064Z,15.65
2022-09-22T16:30:47.962Z,15.20
2022-09-22T16:33:15.647Z,15.31
2022-09-22T16:35:43.249Z,15.27
2022-09-22T16:38:11.681Z,15.21
2022-09-22T16:40:39.077Z,15.21
2022-09-22T16:43:08.805Z,15.02
2022-09-22T16:45:56.448Z,15.10
2022-09-22T16:48:23.807Z,15.10
2022-09-22T16:50:53.827Z,15.03
2022-09-22T16:53:22.759Z,14.89
2022-09-22T16:55:50.093Z,14.82
2022-09-22T16:58:17.717Z,14.57
2022-09-22T17:00:45.135Z,14.90
2022-09-22T17:03:12.602Z,14.73
2022-09-22T17:05:41.144Z,14.76
2022-09-22T17:08:08.904Z,14.79
2022-09-22T17:10:36.265Z,14.76
2022-09-22T17:13:08.418Z,14.66
2022-09-22T17:15:36.085Z,14.55
2022-09-22T17:18:04.158Z,14.41
2022-09-22T17:20:32.522Z,14.33
2022-09-22T17:22:59.873Z,14.42
2022-09-22T17:25:29.093Z,14.36
2022-09-22T17:27:56.809Z,14.55
2022-09-22T17:30:24.973Z,14.24
2022-09-22T17:32:53.010Z,14.38
2022-09-22T17:35:21.814Z,14.51
2022-09-22T17:37:49.161Z,14.51
2022-09-22T17:40:16.911Z,14.44
2022-09-22T17:42:44.325Z,14.57
2022-09-22T17:45:11.754Z,13.99
2022-09-22T17:47:58.499Z,14.35
2022-09-22T17:50:44.506Z,14.40
2022-09-22T17:53:30.378Z,14.31
2022-09-22T17:56:01.862Z,14.54
2022-09-22T17:58:30.393Z,14.49
2022-09-22T18:00:58.016Z,14.33
2022-09-22T18:03:25.669Z,14.37
2022-09-22T18:05:54.245Z,14.27
2022-09-22T18:08:22.151Z,14.19
2022-09-22T18:10:49.941Z,14.09
2022-09-22T18:13:18.300Z,14.23
2022-09-22T18:15:45.826Z,14.22
2022-09-22T18:18:13.520Z,14.02
2022-09-22T18:20:40.902Z,14.03
2022-09-22T18:23:08.246Z,14.06
2022-09-22T18:25:36.923Z,14.05
2022-09-22T18:28:07.755Z,14.10
2022-09-22T18:30:35.093Z,13.88
2022-09-22T18:33:02.677Z,13.71
2022-09-22T18:35:32.238Z,14.06
2022-09-22T18:37:59.603Z,13.72
2022-09-22T18:40:30.092Z,13.82
2022-09-22T18:42:57.731Z,13.58
2022-09-22T18:45:25.195Z,13.77
2022-09-22T18:47:52.801Z,13.69
2022-09-22T18:50:20.421Z,13.74
2022-09-22T18:52:47.913Z,13.65
2022-09-22T18:55:18.273Z,13.64
2022-09-22T18:57:47.796Z,13.71
2022-09-22T19:00:15.774Z,13.47
2022-09-22T19:02:43.521Z,13.64
2022-09-22T19:05:10.929Z,13.10
2022-09-22T19:07:42.107Z,13.31
2022-09-22T19:10:15.512Z,13.22
2022-09-22T19:12:43.060Z,13.18
2022-09-22T19:15:16.417Z,13.38
2022-09-22T19:17:44.918Z,13.35
2022-09-22T19:20:14.561Z,13.53
2022-09-22T19:22:44.970Z,13.25
2022-09-22T19:25:12.734Z,13.26
2022-09-22T19:27:40.261Z,13.04
2022-09-22T19:30:11.546Z,13.36
2022-09-22T19:32:39.398Z,13.36
2022-09-22T19:35:07.051Z,13.32
2022-09-22T19:37:34.409Z,13.42
2022-09-22T19:40:02.472Z,13.00
2022-09-22T19:42:29.838Z,13.06
2022-09-22T19:44:57.202Z,12.93
2022-09-22T19:47:24.793Z,13.15
2022-09-22T19:49:52.267Z,13.09
2022-09-22T19:52:21.027Z,12.98
2022-09-22T19:54:48.644Z,12.71
2022-09-22T19:57:16.400Z,12.87
2022-09-22T19:59:44.907Z,12.76
2022-09-22T20:02:13.427Z,12.54
2022-09-22T20:04:41.164Z,12.76
2022-09-22T20:07:10.722Z,12.46
2022-09-22T20:09:38.145Z,12.33
2022-09-22T20:12:05.767Z,12.20
2022-09-22T20:14:33.132Z,12.06
2022-09-22T20:17:08.034Z,11.98
2022-09-22T20:19:38.376Z,11.80
2022-09-22T20:22:25.464Z,12.16
2022-09-22T20:25:02.353Z,12.20
2022-09-22T20:27:31.591Z,11.99
2022-09-22T20:29:59.489Z,11.90
2022-09-22T20:32:28.021Z,12.17
2022-09-22T20:34:58.494Z,12.17
2022-09-22T20:37:26.139Z,12.47
2022-09-22T20:39:53.484Z,12.41
2022-09-22T20:42:20.897Z,12.59
2022-09-22T20:44:49.199Z,12.38
2022-09-22T20:47:18.356Z,12.24
2022-09-22T20:49:50.622Z,12.12
2022-09-22T20:52:20.117Z,11.83
2022-09-22T20:54:47.990Z,12.01
2022-09-22T20:57:15.461Z,11.97
2022-09-22T20:59:45.575Z,12.26
2022-09-22T21:02:14.033Z,12.23
2022-09-22T21:04:41.581Z,12.16
2022-09-22T21:07:09.436Z,12.34
2022-09-22T21:09:55.719Z,12.38
2022-09-22T21:12:28.751Z,12.06
2022-09-22T21:14:58.506Z,12.41
2022-09-22T21:17:27.781Z,12.69
2022-09-22T21:19:57.746Z,12.73
2022-09-22T21:22:27.306Z,12.56
2022-09-22T21:24:55.248Z,12.81
2022-09-22T21:27:22.769Z,12.71
2022-09-22T21:29:50.124Z,12.64
2022-09-22T21:32:19.930Z,12.76
2022-09-22T21:34:47.366Z,12.69
2022-09-22T21:37:14.753Z,12.68
2022-09-22T21:39:42.401Z,12.74
2022-09-22T21:42:09.712Z,12.69
2022-09-22T21:44:37.054Z,12.62
2022-09-22T21:47:04.882Z,12.51
2022-09-22T21:49:32.938Z,12.61
2022-09-22T21:52:01.163Z,12.79
2022-09-22T21:54:28.777Z,12.76
2022-09-22T21:56:57.302Z,12.58
2022-09-22T21:59:24.677Z,12.60
2022-09-22T22:01:52.334Z,12.58
2022-09-22T22:04:20.042Z,12.63
2022-09-22T22:06:47.472Z,12.36
2022-09-22T22:09:19.347Z,12.32
2022-09-22T22:11:55.510Z,12.43
2022-09-22T22:14:23.858Z,12.45
2022-09-22T22:16:52.772Z,12.27
2022-09-22T22:19:21.432Z,12.17
2022-09-22T22:21:50.351Z,11.84
2022-09-22T22:24:23.173Z,12.14
2022-09-22T22:27:10.204Z,11.88
2022-09-22T22:29:41.091Z,12.25
2022-09-22T22:32:09.458Z,11.98
2022-09-22T22:34:36.981Z,12.19
2022-09-22T22:37:07.123Z,12.19
2022-09-22T22:39:34.502Z,12.12
2022-09-22T22:42:01.852Z,11.99
2022-09-22T22:44:29.534Z,11.59
2022-09-22T22:46:56.888Z,11.78
2022-09-22T22:49:24.268Z,11.98
2022-09-22T22:51:52.465Z,11.65
2022-09-22T22:54:19.869Z,11.06
2022-09-22T22:56:51.042Z,11.67
2022-09-22T22:59:19.203Z,11.93
2022-09-22T23:01:46.616Z,11.64
2022-09-22T23:04:14.027Z,11.78
2022-09-22T23:06:44.028Z,11.43
2022-09-22T23:09:14.071Z,11.42
2022-09-22T23:11:42.147Z,11.73
2022-09-22T23:14:11.479Z,11.88
2022-09-22T23:16:40.439Z,11.83
2022-09-22T23:19:08.716Z,11.52
2022-09-22T23:21:36.214Z,11.79
2022-09-22T23:24:04.322Z,11.49
2022-09-22T23:26:32.138Z,11.59
2022-09-22T23:28:59.682Z,11.71
2022-09-22T23:31:27.752Z,11.16
2022-09-22T23:33:55.349Z,11.29
2022-09-22T23:36:24.271Z,11.35
2022-09-22T23:38:55.419Z,11.08
2022-09-22T23:41:23.005Z,11.01
2022-09-22T23:43:50.490Z,11.26
2022-09-22T23:46:17.954Z,10.67
2022-09-22T23:48:47.396Z,11.01
2022-09-22T23:51:14.817Z,11.35
2022-09-22T23:53:42.190Z,11.37
2022-09-22T23:56:09.778Z,10.84
2022-09-22T23:58:38.189Z,11.27
